sensor_id;sensor_type;location;lat;lon;timestamp;P1;durP1;ratioP1;P2;durP2;ratioP2
58242;SDS011;50118;53.232;8.252;2022-12-11T00:00:39;44.45;;;23.52;;
58242;SDS011;50118;53.232;8.252;2022-12-11T00:03:05;44.78;;;22.55;;
58242;SDS011;50118;53.232;8.252;2022-12-11T00:05:31;43.97;;;23.23;;
58242;SDS011;50118;53.232;8.252;2022-12-11T00:07:56;42.00;;;22.58;;
58242;SDS011;50118;53.232;8.252;2022-12-11T00:10:22;45.28;;;22.83;;
58242;SDS011;50118;53.232;8.252;2022-12-11T00:12:48;41.45;;;22.13;;
58242;SDS011;50118;53.232;8.252;2022-12-11T00:15:14;43.38;;;22.70;;
58242;SDS011;50118;53.232;8.252;2022-12-11T00:17:39;44.55;;;23.50;;
58242;SDS011;50118;53.232;8.252;2022-12-11T00:20:05;44.22;;;22.00;;
58242;SDS011;50118;53.232;8.252;2022-12-11T00:22:31;44.63;;;22.45;;
58242;SDS011;50118;53.232;8.252;2022-12-11T00:24:57;41.85;;;22.45;;
58242;SDS011;50118;53.232;8.252;2022-12-11T00:27:22;49.95;;;24.90;;
58242;SDS011;50118;53.232;8.252;2022-12-11T00:29:48;43.80;;;23.15;;
58242;SDS011;50118;53.232;8.252;2022-12-11T00:32:13;43.00;;;22.42;;
58242;SDS011;50118;53.232;8.252;2022-12-11T00:34:39;42.35;;;22.60;;
58242;SDS011;50118;53.232;8.252;2022-12-11T00:37:04;43.78;;;22.23;;
58242;SDS011;50118;53.232;8.252;2022-12-11T00:39:29;43.33;;;22.75;;
58242;SDS011;50118;53.232;8.252;2022-12-11T00:41:55;44.55;;;22.75;;
58242;SDS011;50118;53.232;8.252;2022-12-11T00:44:20;40.38;;;20.77;;
58242;SDS011;50118;53.232;8.252;2022-12-11T00:46:46;39.83;;;22.40;;
58242;SDS011;50118;53.232;8.252;2022-12-11T00:49:11;43.15;;;22.73;;
58242;SDS011;50118;53.232;8.252;2022-12-11T00:51:36;45.75;;;22.90;;
58242;SDS011;50118;53.232;8.252;2022-12-11T00:54:02;44.00;;;22.40;;
58242;SDS011;50118;53.232;8.252;2022-12-11T00:56:28;43.53;;;23.70;;
58242;SDS011;50118;53.232;8.252;2022-12-11T00:58:53;44.72;;;22.60;;
58242;SDS011;50118;53.232;8.252;2022-12-11T01:01:20;41.22;;;21.95;;
58242;SDS011;50118;53.232;8.252;2022-12-11T01:03:48;45.95;;;22.92;;
58242;SDS011;50118;53.232;8.252;2022-12-11T01:06:14;44.92;;;23.67;;
58242;SDS011;50118;53.232;8.252;2022-12-11T01:08:41;44.60;;;22.73;;
58242;SDS011;50118;53.232;8.252;2022-12-11T01:11:09;45.40;;;23.15;;
58242;SDS011;50118;53.232;8.252;2022-12-11T01:13:36;43.10;;;21.90;;
58242;SDS011;50118;53.232;8.252;2022-12-11T01:16:07;43.15;;;22.85;;
58242;SDS011;50118;53.232;8.252;2022-12-11T01:18:35;44.53;;;22.23;;
58242;SDS011;50118;53.232;8.252;2022-12-11T01:21:05;46.22;;;22.63;;
58242;SDS011;50118;53.232;8.252;2022-12-11T01:23:32;42.85;;;22.35;;
58242;SDS011;50118;53.232;8.252;2022-12-11T01:26:02;43.22;;;22.83;;
58242;SDS011;50118;53.232;8.252;2022-12-11T01:28:32;41.72;;;21.52;;
58242;SDS011;50118;53.232;8.252;2022-12-11T01:30:58;44.70;;;22.52;;
58242;SDS011;50118;53.232;8.252;2022-12-11T01:33:23;47.28;;;22.63;;
58242;SDS011;50118;53.232;8.252;2022-12-11T01:35:48;41.83;;;21.58;;
58242;SDS011;50118;53.232;8.252;2022-12-11T01:38:14;43.40;;;23.50;;
58242;SDS011;50118;53.232;8.252;2022-12-11T01:40:44;44.28;;;23.25;;
58242;SDS011;50118;53.232;8.252;2022-12-11T01:43:14;44.15;;;22.10;;
58242;SDS011;50118;53.232;8.252;2022-12-11T01:45:40;44.17;;;23.10;;
58242;SDS011;50118;53.232;8.252;2022-12-11T01:48:10;42.50;;;22.30;;
58242;SDS011;50118;53.232;8.252;2022-12-11T01:50:46;45.25;;;23.27;;
58242;SDS011;50118;53.232;8.252;2022-12-11T01:56:18;45.30;;;23.17;;
58242;SDS011;50118;53.232;8.252;2022-12-11T01:58:48;44.45;;;22.33;;
58242;SDS011;50118;53.232;8.252;2022-12-11T02:01:19;45.03;;;22.58;;
58242;SDS011;50118;53.232;8.252;2022-12-11T02:04:07;48.08;;;23.00;;
58242;SDS011;50118;53.232;8.252;2022-12-11T02:06:39;44.22;;;22.48;;
58242;SDS011;50118;53.232;8.252;2022-12-11T02:09:08;44.63;;;22.73;;
58242;SDS011;50118;53.232;8.252;2022-12-11T02:11:56;49.00;;;23.98;;
58242;SDS011;50118;53.232;8.252;2022-12-11T02:14:29;43.83;;;22.48;;
58242;SDS011;50118;53.232;8.252;2022-12-11T02:22:18;46.25;;;23.88;;
58242;SDS011;50118;53.232;8.252;2022-12-11T02:27:32;46.53;;;22.77;;
58242;SDS011;50118;53.232;8.252;2022-12-11T02:30:08;45.72;;;22.67;;
58242;SDS011;50118;53.232;8.252;2022-12-11T02:32:43;46.33;;;23.73;;
58242;SDS011;50118;53.232;8.252;2022-12-11T02:35:14;45.63;;;23.35;;
58242;SDS011;50118;53.232;8.252;2022-12-11T02:38:25;45.30;;;22.45;;
58242;SDS011;50118;53.232;8.252;2022-12-11T02:40:55;46.67;;;22.30;;
58242;SDS011;50118;53.232;8.252;2022-12-11T02:43:22;45.22;;;23.33;;
58242;SDS011;50118;53.232;8.252;2022-12-11T02:45:49;45.10;;;23.90;;
58242;SDS011;50118;53.232;8.252;2022-12-11T02:48:16;46.95;;;23.83;;
58242;SDS011;50118;53.232;8.252;2022-12-11T02:50:45;47.05;;;23.90;;
58242;SDS011;50118;53.232;8.252;2022-12-11T02:53:13;44.65;;;22.58;;
58242;SDS011;50118;53.232;8.252;2022-12-11T02:55:42;44.45;;;22.58;;
58242;SDS011;50118;53.232;8.252;2022-12-11T02:58:16;46.20;;;23.55;;
58242;SDS011;50118;53.232;8.252;2022-12-11T03:00:46;45.90;;;23.33;;
58242;SDS011;50118;53.232;8.252;2022-12-11T03:03:11;45.53;;;23.98;;
58242;SDS011;50118;53.232;8.252;2022-12-11T03:05:38;46.65;;;23.77;;
58242;SDS011;50118;53.232;8.252;2022-12-11T03:08:04;45.17;;;23.50;;
58242;SDS011;50118;53.232;8.252;2022-12-11T03:10:30;41.60;;;22.27;;
58242;SDS011;50118;53.232;8.252;2022-12-11T03:12:56;44.42;;;23.75;;
58242;SDS011;50118;53.232;8.252;2022-12-11T03:15:27;43.97;;;22.38;;
58242;SDS011;50118;53.232;8.252;2022-12-11T03:20:55;46.08;;;22.52;;
58242;SDS011;50118;53.232;8.252;2022-12-11T03:23:30;40.05;;;22.23;;
58242;SDS011;50118;53.232;8.252;2022-12-11T03:26:02;44.80;;;22.92;;
58242;SDS011;50118;53.232;8.252;2022-12-11T03:28:37;44.63;;;22.63;;
58242;SDS011;50118;53.232;8.252;2022-12-11T03:31:17;46.63;;;23.55;;
58242;SDS011;50118;53.232;8.252;2022-12-11T03:34:13;47.92;;;24.27;;
58242;SDS011;50118;53.232;8.252;2022-12-11T03:36:43;44.97;;;22.92;;
58242;SDS011;50118;53.232;8.252;2022-12-11T03:39:12;44.95;;;22.58;;
58242;SDS011;50118;53.232;8.252;2022-12-11T03:41:43;44.00;;;23.67;;
58242;SDS011;50118;53.232;8.252;2022-12-11T03:44:10;46.95;;;23.00;;
58242;SDS011;50118;53.232;8.252;2022-12-11T03:46:37;48.25;;;25.40;;
58242;SDS011;50118;53.232;8.252;2022-12-11T03:49:06;47.78;;;24.77;;
58242;SDS011;50118;53.232;8.252;2022-12-11T03:51:37;48.30;;;24.55;;
58242;SDS011;50118;53.232;8.252;2022-12-11T03:54:04;45.40;;;24.52;;
58242;SDS011;50118;53.232;8.252;2022-12-11T03:56:30;44.38;;;23.80;;
58242;SDS011;50118;53.232;8.252;2022-12-11T03:59:00;47.15;;;24.77;;
58242;SDS011;50118;53.232;8.252;2022-12-11T04:01:25;47.45;;;23.77;;
58242;SDS011;50118;53.232;8.252;2022-12-11T04:03:51;47.50;;;23.90;;
58242;SDS011;50118;53.232;8.252;2022-12-11T04:06:16;47.33;;;24.35;;
58242;SDS011;50118;53.232;8.252;2022-12-11T04:08:42;50.42;;;25.20;;
58242;SDS011;50118;53.232;8.252;2022-12-11T04:11:08;47.78;;;25.58;;
58242;SDS011;50118;53.232;8.252;2022-12-11T04:13:53;50.38;;;24.55;;
58242;SDS011;50118;53.232;8.252;2022-12-11T04:16:37;46.53;;;23.42;;
58242;SDS011;50118;53.232;8.252;2022-12-11T04:19:03;49.78;;;25.08;;
58242;SDS011;50118;53.232;8.252;2022-12-11T04:21:47;46.30;;;23.23;;
58242;SDS011;50118;53.232;8.252;2022-12-11T04:24:31;54.10;;;25.33;;
58242;SDS011;50118;53.232;8.252;2022-12-11T04:26:57;51.35;;;25.20;;
58242;SDS011;50118;53.232;8.252;2022-12-11T04:29:22;56.75;;;27.60;;
58242;SDS011;50118;53.232;8.252;2022-12-11T04:31:48;56.42;;;27.25;;
58242;SDS011;50118;53.232;8.252;2022-12-11T04:34:14;54.33;;;26.08;;
58242;SDS011;50118;53.232;8.252;2022-12-11T04:36:40;79.93;;;27.55;;
58242;SDS011;50118;53.232;8.252;2022-12-11T04:39:05;79.53;;;25.52;;
58242;SDS011;50118;53.232;8.252;2022-12-11T04:41:31;76.03;;;25.83;;
58242;SDS011;50118;53.232;8.252;2022-12-11T04:43:56;83.18;;;25.50;;
58242;SDS011;50118;53.232;8.252;2022-12-11T04:46:22;85.18;;;25.50;;
58242;SDS011;50118;53.232;8.252;2022-12-11T04:48:49;86.75;;;25.85;;
58242;SDS011;50118;53.232;8.252;2022-12-11T04:51:16;80.60;;;24.90;;
58242;SDS011;50118;53.232;8.252;2022-12-11T04:53:42;83.70;;;24.90;;
58242;SDS011;50118;53.232;8.252;2022-12-11T04:56:09;87.07;;;24.58;;
58242;SDS011;50118;53.232;8.252;2022-12-11T04:58:37;84.57;;;24.50;;
58242;SDS011;50118;53.232;8.252;2022-12-11T05:01:10;80.10;;;23.90;;
58242;SDS011;50118;53.232;8.252;2022-12-11T05:03:37;78.82;;;23.63;;
58242;SDS011;50118;53.232;8.252;2022-12-11T05:06:03;74.50;;;23.08;;
58242;SDS011;50118;53.232;8.252;2022-12-11T05:08:28;79.45;;;23.75;;
58242;SDS011;50118;53.232;8.252;2022-12-11T05:10:54;80.82;;;23.67;;
58242;SDS011;50118;53.232;8.252;2022-12-11T05:13:21;91.53;;;23.33;;
58242;SDS011;50118;53.232;8.252;2022-12-11T05:15:47;85.63;;;22.52;;
58242;SDS011;50118;53.232;8.252;2022-12-11T05:18:12;74.13;;;22.60;;
58242;SDS011;50118;53.232;8.252;2022-12-11T05:20:37;78.40;;;23.85;;
58242;SDS011;50118;53.232;8.252;2022-12-11T05:23:03;86.00;;;24.85;;
58242;SDS011;50118;53.232;8.252;2022-12-11T05:25:28;88.03;;;24.27;;
58242;SDS011;50118;53.232;8.252;2022-12-11T05:27:53;85.05;;;23.95;;
58242;SDS011;50118;53.232;8.252;2022-12-11T05:30:19;76.05;;;22.48;;
58242;SDS011;50118;53.232;8.252;2022-12-11T05:32:44;81.90;;;22.30;;
58242;SDS011;50118;53.232;8.252;2022-12-11T05:35:10;78.50;;;22.00;;
58242;SDS011;50118;53.232;8.252;2022-12-11T05:37:35;73.85;;;22.00;;
58242;SDS011;50118;53.232;8.252;2022-12-11T05:40:01;68.93;;;20.90;;
58242;SDS011;50118;53.232;8.252;2022-12-11T05:42:26;71.95;;;20.85;;
58242;SDS011;50118;53.232;8.252;2022-12-11T05:44:52;68.97;;;21.75;;
58242;SDS011;50118;53.232;8.252;2022-12-11T05:47:17;71.97;;;20.60;;
58242;SDS011;50118;53.232;8.252;2022-12-11T05:49:44;64.72;;;19.60;;
58242;SDS011;50118;53.232;8.252;2022-12-11T05:52:11;68.03;;;21.10;;
58242;SDS011;50118;53.232;8.252;2022-12-11T05:54:37;66.45;;;19.55;;
58242;SDS011;50118;53.232;8.252;2022-12-11T05:57:02;66.00;;;19.67;;
58242;SDS011;50118;53.232;8.252;2022-12-11T05:59:28;64.00;;;19.42;;
58242;SDS011;50118;53.232;8.252;2022-12-11T06:01:53;65.03;;;18.80;;
58242;SDS011;50118;53.232;8.252;2022-12-11T06:04:19;70.95;;;20.02;;
58242;SDS011;50118;53.232;8.252;2022-12-11T06:06:44;61.67;;;19.05;;
58242;SDS011;50118;53.232;8.252;2022-12-11T06:09:11;72.55;;;19.95;;
58242;SDS011;50118;53.232;8.252;2022-12-11T06:11:39;64.05;;;19.55;;
58242;SDS011;50118;53.232;8.252;2022-12-11T06:14:04;71.18;;;19.77;;
58242;SDS011;50118;53.232;8.252;2022-12-11T06:16:30;66.18;;;19.35;;
58242;SDS011;50118;53.232;8.252;2022-12-11T06:18:56;61.97;;;18.88;;
58242;SDS011;50118;53.232;8.252;2022-12-11T06:21:23;62.03;;;18.70;;
58242;SDS011;50118;53.232;8.252;2022-12-11T06:23:51;55.75;;;17.85;;
58242;SDS011;50118;53.232;8.252;2022-12-11T06:26:18;65.65;;;19.10;;
58242;SDS011;50118;53.232;8.252;2022-12-11T06:28:44;57.33;;;17.15;;
58242;SDS011;50118;53.232;8.252;2022-12-11T06:31:10;59.50;;;17.80;;
58242;SDS011;50118;53.232;8.252;2022-12-11T06:33:36;60.13;;;18.70;;
58242;SDS011;50118;53.232;8.252;2022-12-11T06:36:02;55.35;;;16.42;;
58242;SDS011;50118;53.232;8.252;2022-12-11T06:38:29;57.78;;;18.27;;
58242;SDS011;50118;53.232;8.252;2022-12-11T06:40:54;59.83;;;18.85;;
58242;SDS011;50118;53.232;8.252;2022-12-11T06:43:20;60.88;;;19.10;;
58242;SDS011;50118;53.232;8.252;2022-12-11T06:45:46;52.95;;;17.48;;
58242;SDS011;50118;53.232;8.252;2022-12-11T06:48:12;57.90;;;18.20;;
58242;SDS011;50118;53.232;8.252;2022-12-11T06:50:37;53.28;;;16.95;;
58242;SDS011;50118;53.232;8.252;2022-12-11T06:53:03;56.92;;;17.80;;
58242;SDS011;50118;53.232;8.252;2022-12-11T06:55:28;59.05;;;18.73;;
58242;SDS011;50118;53.232;8.252;2022-12-11T06:57:54;63.05;;;18.38;;
58242;SDS011;50118;53.232;8.252;2022-12-11T07:00:19;53.75;;;18.50;;
58242;SDS011;50118;53.232;8.252;2022-12-11T07:02:45;56.13;;;18.95;;
58242;SDS011;50118;53.232;8.252;2022-12-11T07:05:10;56.33;;;17.73;;
58242;SDS011;50118;53.232;8.252;2022-12-11T07:07:35;61.78;;;19.50;;
58242;SDS011;50118;53.232;8.252;2022-12-11T07:10:01;58.33;;;18.67;;
58242;SDS011;50118;53.232;8.252;2022-12-11T07:12:27;51.28;;;17.17;;
58242;SDS011;50118;53.232;8.252;2022-12-11T07:14:52;55.08;;;16.88;;
58242;SDS011;50118;53.232;8.252;2022-12-11T07:17:17;48.65;;;16.65;;
58242;SDS011;50118;53.232;8.252;2022-12-11T07:19:43;54.67;;;17.20;;
58242;SDS011;50118;53.232;8.252;2022-12-11T07:22:08;53.22;;;17.35;;
58242;SDS011;50118;53.232;8.252;2022-12-11T07:24:34;52.70;;;16.65;;
58242;SDS011;50118;53.232;8.252;2022-12-11T07:26:59;50.67;;;16.88;;
58242;SDS011;50118;53.232;8.252;2022-12-11T07:29:25;54.15;;;17.00;;
58242;SDS011;50118;53.232;8.252;2022-12-11T07:31:50;45.00;;;15.82;;
58242;SDS011;50118;53.232;8.252;2022-12-11T07:34:15;49.75;;;17.80;;
58242;SDS011;50118;53.232;8.252;2022-12-11T07:36:41;50.08;;;16.90;;
58242;SDS011;50118;53.232;8.252;2022-12-11T07:39:07;53.88;;;16.42;;
58242;SDS011;50118;53.232;8.252;2022-12-11T07:41:36;47.88;;;16.98;;
58242;SDS011;50118;53.232;8.252;2022-12-11T07:44:01;47.92;;;16.40;;
58242;SDS011;50118;53.232;8.252;2022-12-11T07:46:29;52.63;;;18.23;;
58242;SDS011;50118;53.232;8.252;2022-12-11T07:48:55;56.42;;;16.83;;
58242;SDS011;50118;53.232;8.252;2022-12-11T07:51:25;50.97;;;16.88;;
58242;SDS011;50118;53.232;8.252;2022-12-11T07:53:53;48.50;;;16.30;;
58242;SDS011;50118;53.232;8.252;2022-12-11T07:56:21;48.40;;;16.30;;
58242;SDS011;50118;53.232;8.252;2022-12-11T07:58:47;49.45;;;17.35;;
58242;SDS011;50118;53.232;8.252;2022-12-11T08:01:14;43.85;;;16.00;;
58242;SDS011;50118;53.232;8.252;2022-12-11T08:03:51;46.65;;;16.80;;
58242;SDS011;50118;53.232;8.252;2022-12-11T08:06:17;51.83;;;16.65;;
58242;SDS011;50118;53.232;8.252;2022-12-11T08:08:43;48.53;;;15.80;;
58242;SDS011;50118;53.232;8.252;2022-12-11T08:11:11;46.22;;;15.82;;
58242;SDS011;50118;53.232;8.252;2022-12-11T08:13:38;48.08;;;16.23;;
58242;SDS011;50118;53.232;8.252;2022-12-11T08:16:05;46.85;;;15.73;;
58242;SDS011;50118;53.232;8.252;2022-12-11T08:18:32;48.65;;;16.08;;
58242;SDS011;50118;53.232;8.252;2022-12-11T08:20:58;45.35;;;15.88;;
58242;SDS011;50118;53.232;8.252;2022-12-11T08:23:29;49.08;;;16.75;;
58242;SDS011;50118;53.232;8.252;2022-12-11T08:25:55;46.20;;;17.02;;
58242;SDS011;50118;53.232;8.252;2022-12-11T08:28:20;51.63;;;17.73;;
58242;SDS011;50118;53.232;8.252;2022-12-11T08:30:46;46.58;;;15.98;;
58242;SDS011;50118;53.232;8.252;2022-12-11T08:33:11;45.83;;;16.67;;
58242;SDS011;50118;53.232;8.252;2022-12-11T08:35:37;47.50;;;16.42;;
58242;SDS011;50118;53.232;8.252;2022-12-11T08:38:03;45.72;;;16.58;;
58242;SDS011;50118;53.232;8.252;2022-12-11T08:40:29;51.50;;;16.90;;
58242;SDS011;50118;53.232;8.252;2022-12-11T08:42:54;46.47;;;16.50;;
58242;SDS011;50118;53.232;8.252;2022-12-11T08:45:20;51.13;;;16.88;;
58242;SDS011;50118;53.232;8.252;2022-12-11T08:47:45;50.42;;;16.77;;
58242;SDS011;50118;53.232;8.252;2022-12-11T08:50:10;43.90;;;15.77;;
58242;SDS011;50118;53.232;8.252;2022-12-11T08:52:36;46.58;;;15.60;;
58242;SDS011;50118;53.232;8.252;2022-12-11T08:55:01;45.42;;;15.55;;
58242;SDS011;50118;53.232;8.252;2022-12-11T08:57:27;46.75;;;16.55;;
58242;SDS011;50118;53.232;8.252;2022-12-11T08:59:53;47.63;;;16.88;;
58242;SDS011;50118;53.232;8.252;2022-12-11T09:02:19;49.28;;;16.20;;
58242;SDS011;50118;53.232;8.252;2022-12-11T09:04:44;51.03;;;16.65;;
58242;SDS011;50118;53.232;8.252;2022-12-11T09:07:09;46.63;;;17.15;;
58242;SDS011;50118;53.232;8.252;2022-12-11T09:09:36;47.85;;;16.05;;
58242;SDS011;50118;53.232;8.252;2022-12-11T09:12:01;40.28;;;15.50;;
58242;SDS011;50118;53.232;8.252;2022-12-11T09:14:28;37.40;;;14.50;;
58242;SDS011;50118;53.232;8.252;2022-12-11T09:16:54;42.95;;;14.88;;
58242;SDS011;50118;53.232;8.252;2022-12-11T09:19:19;41.40;;;14.77;;
58242;SDS011;50118;53.232;8.252;2022-12-11T09:21:44;39.20;;;14.40;;
58242;SDS011;50118;53.232;8.252;2022-12-11T09:24:10;37.25;;;14.00;;
58242;SDS011;50118;53.232;8.252;2022-12-11T09:26:37;37.78;;;14.23;;
58242;SDS011;50118;53.232;8.252;2022-12-11T09:29:04;38.17;;;14.85;;
58242;SDS011;50118;53.232;8.252;2022-12-11T09:31:31;48.03;;;18.30;;
58242;SDS011;50118;53.232;8.252;2022-12-11T09:33:59;39.15;;;14.35;;
58242;SDS011;50118;53.232;8.252;2022-12-11T09:36:26;40.55;;;15.45;;
58242;SDS011;50118;53.232;8.252;2022-12-11T09:38:52;38.42;;;15.77;;
58242;SDS011;50118;53.232;8.252;2022-12-11T09:46:30;37.08;;;14.80;;
58242;SDS011;50118;53.232;8.252;2022-12-11T09:48:57;37.95;;;14.93;;
58242;SDS011;50118;53.232;8.252;2022-12-11T09:51:27;42.85;;;14.85;;
58242;SDS011;50118;53.232;8.252;2022-12-11T10:07:52;38.83;;;14.35;;
58242;SDS011;50118;53.232;8.252;2022-12-11T10:10:48;43.92;;;14.10;;
58242;SDS011;50118;53.232;8.252;2022-12-11T10:18:43;38.28;;;15.73;;
58242;SDS011;50118;53.232;8.252;2022-12-11T10:21:08;39.78;;;15.15;;
58242;SDS011;50118;53.232;8.252;2022-12-11T10:23:42;44.40;;;15.30;;
58242;SDS011;50118;53.232;8.252;2022-12-11T10:26:17;42.10;;;15.45;;
58242;SDS011;50118;53.232;8.252;2022-12-11T10:28:45;41.00;;;14.75;;
58242;SDS011;50118;53.232;8.252;2022-12-11T10:31:27;44.55;;;16.08;;
58242;SDS011;50118;53.232;8.252;2022-12-11T10:34:00;41.78;;;15.38;;
58242;SDS011;50118;53.232;8.252;2022-12-11T10:36:29;41.30;;;15.15;;
58242;SDS011;50118;53.232;8.252;2022-12-11T10:38:57;41.95;;;15.85;;
58242;SDS011;50118;53.232;8.252;2022-12-11T10:41:24;40.65;;;14.85;;
58242;SDS011;50118;53.232;8.252;2022-12-11T10:44:11;42.17;;;15.48;;
58242;SDS011;50118;53.232;8.252;2022-12-11T10:46:59;40.08;;;15.60;;
58242;SDS011;50118;53.232;8.252;2022-12-11T10:49:36;38.33;;;14.40;;
58242;SDS011;50118;53.232;8.252;2022-12-11T10:52:19;36.47;;;15.25;;
58242;SDS011;50118;53.232;8.252;2022-12-11T10:54:53;36.67;;;14.77;;
58242;SDS011;50118;53.232;8.252;2022-12-11T10:57:30;38.08;;;14.77;;
58242;SDS011;50118;53.232;8.252;2022-12-11T10:59:58;36.00;;;14.27;;
58242;SDS011;50118;53.232;8.252;2022-12-11T11:02:31;33.50;;;13.60;;
58242;SDS011;50118;53.232;8.252;2022-12-11T11:05:09;40.00;;;14.25;;
58242;SDS011;50118;53.232;8.252;2022-12-11T11:07:37;36.55;;;14.85;;
58242;SDS011;50118;53.232;8.252;2022-12-11T11:10:13;36.65;;;14.57;;
58242;SDS011;50118;53.232;8.252;2022-12-11T11:12:42;39.22;;;14.65;;
58242;SDS011;50118;53.232;8.252;2022-12-11T11:15:11;41.15;;;15.35;;
58242;SDS011;50118;53.232;8.252;2022-12-11T11:17:43;46.92;;;17.13;;
58242;SDS011;50118;53.232;8.252;2022-12-11T11:20:13;39.97;;;14.82;;
58242;SDS011;50118;53.232;8.252;2022-12-11T11:22:53;39.17;;;16.52;;
58242;SDS011;50118;53.232;8.252;2022-12-11T11:25:23;36.92;;;14.15;;
58242;SDS011;50118;53.232;8.252;2022-12-11T11:30:26;37.28;;;15.30;;
58242;SDS011;50118;53.232;8.252;2022-12-11T11:32:55;34.65;;;14.48;;
58242;SDS011;50118;53.232;8.252;2022-12-11T11:35:27;33.38;;;13.32;;
58242;SDS011;50118;53.232;8.252;2022-12-11T11:40:29;34.13;;;12.95;;
58242;SDS011;50118;53.232;8.252;2022-12-11T11:43:03;31.60;;;13.40;;
58242;SDS011;50118;53.232;8.252;2022-12-11T11:45:40;31.38;;;13.45;;
58242;SDS011;50118;53.232;8.252;2022-12-11T11:51:19;34.17;;;12.52;;
58242;SDS011;50118;53.232;8.252;2022-12-11T11:53:49;32.58;;;12.00;;
58242;SDS011;50118;53.232;8.252;2022-12-11T11:59:02;32.42;;;12.30;;
58242;SDS011;50118;53.232;8.252;2022-12-11T12:01:39;27.42;;;11.30;;
58242;SDS011;50118;53.232;8.252;2022-12-11T12:04:06;28.33;;;11.30;;
58242;SDS011;50118;53.232;8.252;2022-12-11T12:12:11;27.70;;;11.40;;
58242;SDS011;50118;53.232;8.252;2022-12-11T12:28:21;26.88;;;11.60;;
58242;SDS011;50118;53.232;8.252;2022-12-11T12:34:12;37.10;;;13.48;;
58242;SDS011;50118;53.232;8.252;2022-12-11T12:45:24;38.10;;;14.93;;
58242;SDS011;50118;53.232;8.252;2022-12-11T12:47:55;43.92;;;16.65;;
58242;SDS011;50118;53.232;8.252;2022-12-11T12:50:22;41.05;;;15.45;;
58242;SDS011;50118;53.232;8.252;2022-12-11T12:52:49;39.75;;;16.55;;
58242;SDS011;50118;53.232;8.252;2022-12-11T12:57:56;40.15;;;15.98;;
58242;SDS011;50118;53.232;8.252;2022-12-11T13:00:25;41.42;;;16.77;;
58242;SDS011;50118;53.232;8.252;2022-12-11T13:03:09;37.47;;;16.20;;
58242;SDS011;50118;53.232;8.252;2022-12-11T13:05:38;36.90;;;16.08;;
58242;SDS011;50118;53.232;8.252;2022-12-11T13:08:06;40.47;;;16.52;;
58242;SDS011;50118;53.232;8.252;2022-12-11T13:10:33;39.60;;;17.08;;
58242;SDS011;50118;53.232;8.252;2022-12-11T13:13:01;30.27;;;14.45;;
58242;SDS011;50118;53.232;8.252;2022-12-11T13:15:39;33.80;;;14.77;;
58242;SDS011;50118;53.232;8.252;2022-12-11T13:21:00;32.85;;;13.52;;
58242;SDS011;50118;53.232;8.252;2022-12-11T13:25:58;25.10;;;11.32;;
58242;SDS011;50118;53.232;8.252;2022-12-11T13:34:24;24.85;;;11.27;;
58242;SDS011;50118;53.232;8.252;2022-12-11T13:36:50;24.65;;;11.00;;
58242;SDS011;50118;53.232;8.252;2022-12-11T13:39:25;25.38;;;11.77;;
58242;SDS011;50118;53.232;8.252;2022-12-11T13:42:39;24.52;;;11.57;;
58242;SDS011;50118;53.232;8.252;2022-12-11T13:44:53;23.00;;;11.38;;
58242;SDS011;50118;53.232;8.252;2022-12-11T13:47:19;26.65;;;12.32;;
58242;SDS011;50118;53.232;8.252;2022-12-11T13:49:46;26.65;;;12.60;;
58242;SDS011;50118;53.232;8.252;2022-12-11T13:52:18;29.27;;;13.47;;
58242;SDS011;50118;53.232;8.252;2022-12-11T13:54:49;28.98;;;13.45;;
58242;SDS011;50118;53.232;8.252;2022-12-11T13:57:17;28.25;;;13.63;;
58242;SDS011;50118;53.232;8.252;2022-12-11T13:59:51;31.42;;;13.70;;
58242;SDS011;50118;53.232;8.252;2022-12-11T14:02:28;28.13;;;13.35;;
58242;SDS011;50118;53.232;8.252;2022-12-11T14:04:59;28.65;;;13.85;;
58242;SDS011;50118;53.232;8.252;2022-12-11T14:07:30;33.30;;;13.93;;
58242;SDS011;50118;53.232;8.252;2022-12-11T14:10:08;29.80;;;13.60;;
58242;SDS011;50118;53.232;8.252;2022-12-11T14:12:42;33.00;;;15.75;;
58242;SDS011;50118;53.232;8.252;2022-12-11T14:15:28;32.28;;;14.77;;
58242;SDS011;50118;53.232;8.252;2022-12-11T14:17:56;31.08;;;14.75;;
58242;SDS011;50118;53.232;8.252;2022-12-11T14:20:27;31.50;;;15.02;;
58242;SDS011;50118;53.232;8.252;2022-12-11T14:26:03;30.85;;;14.63;;
58242;SDS011;50118;53.232;8.252;2022-12-11T14:28:40;32.67;;;16.27;;
58242;SDS011;50118;53.232;8.252;2022-12-11T14:31:12;31.90;;;15.73;;
58242;SDS011;50118;53.232;8.252;2022-12-11T14:33:42;33.50;;;14.82;;
58242;SDS011;50118;53.232;8.252;2022-12-11T14:36:12;31.80;;;14.30;;
58242;SDS011;50118;53.232;8.252;2022-12-11T14:38:43;29.52;;;13.55;;
58242;SDS011;50118;53.232;8.252;2022-12-11T14:41:17;29.17;;;13.63;;
58242;SDS011;50118;53.232;8.252;2022-12-11T14:43:48;26.57;;;13.33;;
58242;SDS011;50118;53.232;8.252;2022-12-11T14:46:22;27.67;;;13.27;;
58242;SDS011;50118;53.232;8.252;2022-12-11T14:48:58;29.15;;;13.60;;
58242;SDS011;50118;53.232;8.252;2022-12-11T14:51:31;27.02;;;13.48;;
58242;SDS011;50118;53.232;8.252;2022-12-11T14:54:00;29.33;;;14.43;;
58242;SDS011;50118;53.232;8.252;2022-12-11T14:56:27;31.65;;;14.63;;
58242;SDS011;50118;53.232;8.252;2022-12-11T14:58:56;28.98;;;14.50;;
58242;SDS011;50118;53.232;8.252;2022-12-11T15:01:31;26.90;;;13.82;;
58242;SDS011;50118;53.232;8.252;2022-12-11T15:04:05;28.88;;;14.18;;
58242;SDS011;50118;53.232;8.252;2022-12-11T15:06:44;27.35;;;12.93;;
58242;SDS011;50118;53.232;8.252;2022-12-11T15:09:53;29.10;;;15.35;;
58242;SDS011;50118;53.232;8.252;2022-12-11T15:12:07;25.75;;;13.25;;
58242;SDS011;50118;53.232;8.252;2022-12-11T15:14:46;25.02;;;12.77;;
58242;SDS011;50118;53.232;8.252;2022-12-11T15:17:24;24.27;;;12.70;;
58242;SDS011;50118;53.232;8.252;2022-12-11T15:19:52;27.13;;;13.02;;
58242;SDS011;50118;53.232;8.252;2022-12-11T15:22:21;23.80;;;12.00;;
58242;SDS011;50118;53.232;8.252;2022-12-11T15:24:51;22.88;;;11.88;;
58242;SDS011;50118;53.232;8.252;2022-12-11T15:30:53;30.52;;;13.85;;
58242;SDS011;50118;53.232;8.252;2022-12-11T15:35:34;25.35;;;12.07;;
58242;SDS011;50118;53.232;8.252;2022-12-11T15:38:01;25.13;;;12.68;;
58242;SDS011;50118;53.232;8.252;2022-12-11T15:40:27;27.42;;;13.85;;
58242;SDS011;50118;53.232;8.252;2022-12-11T15:42:53;33.58;;;16.25;;
58242;SDS011;50118;53.232;8.252;2022-12-11T15:45:20;45.50;;;19.70;;
58242;SDS011;50118;53.232;8.252;2022-12-11T15:47:47;36.63;;;17.67;;
58242;SDS011;50118;53.232;8.252;2022-12-11T15:52:41;29.67;;;15.43;;
58242;SDS011;50118;53.232;8.252;2022-12-11T15:55:07;28.25;;;14.57;;
58242;SDS011;50118;53.232;8.252;2022-12-11T15:57:34;30.60;;;14.90;;
58242;SDS011;50118;53.232;8.252;2022-12-11T15:59:59;29.38;;;15.07;;
58242;SDS011;50118;53.232;8.252;2022-12-11T16:02:25;31.27;;;16.63;;
58242;SDS011;50118;53.232;8.252;2022-12-11T16:04:52;31.58;;;17.33;;
58242;SDS011;50118;53.232;8.252;2022-12-11T16:07:21;27.50;;;14.75;;
58242;SDS011;50118;53.232;8.252;2022-12-11T16:09:49;34.25;;;16.48;;
58242;SDS011;50118;53.232;8.252;2022-12-11T16:12:15;29.30;;;15.90;;
58242;SDS011;50118;53.232;8.252;2022-12-11T16:14:41;27.08;;;13.48;;
58242;SDS011;50118;53.232;8.252;2022-12-11T16:17:09;34.33;;;17.95;;